KDUH

Details ICAO KDUH
Name TOLEDO SUBURBAN
Region United States
Timezone America/Detroit (UTC-5.0)
Plans Departing 3
Arriving 0
Stats Elevation 669 ft / 204 m (AMSL)
Location 41.735880° -83.655410°
Runways 1
Magnetic Variation 6.974° W
Sunrise 2017-12-15 12:56:21 UTC / 2017-12-15 07:56:21 Local
Sunset 2017-12-15 22:06:12 UTC / 2017-12-15 17:06:12 Local
Advertisement - Login to hide

Runways

ID Width Length Bearing (true) Bearing (mag) Surface Threshold Offset Overrun Length
09 50 ft / 15 m 5,000 ft / 1,524 m 86.87° 93.84° Asphalt 1,274 ft / 388 m 0 ft / 0 m
27 50 ft / 15 m 5,000 ft / 1,524 m 266.88° 273.85° Asphalt 1,200 ft / 366 m 0 ft / 0 m

Map

Weather


0- 5 10 15 20 25 30 35+ Temperature / ° C

Clouds and Precipitation
Forecast for 2017-12-16 00:00 UTC. Updated 42 minutes ago

Ground ~20,000 ft ~40,000 ft Winds

METAR

KDUH 152155Z AUTO 25009KT 10SM -SN SCT031 OVC039 M03/M07 A2988 RMK AO2 T10321072

TAF

Not found

Frequencies

Recorded 119.17 MHz AWOS 3
Approach 134.35 MHz APP/DEP
Unicom 122.70 MHz CTAF/UNICOM
Warning: Do not use this data for real-world aviation or navigation. No guarantee of current accuracy is given.